createdAt,value
2017-12-23T00:01:01.017Z,0
2017-12-23T00:02:10.976Z,0
2017-12-23T00:03:20.930Z,0
2017-12-23T00:04:30.643Z,0
2017-12-23T00:05:40.675Z,0
2017-12-23T00:06:50.628Z,0
2017-12-23T00:08:00.639Z,0
2017-12-23T00:09:10.346Z,0
2017-12-23T00:10:20.309Z,0
2017-12-23T00:11:29.743Z,0
2017-12-23T00:12:39.440Z,0
2017-12-23T00:13:49.141Z,0
2017-12-23T00:14:58.860Z,0
2017-12-23T00:16:08.569Z,0
2017-12-23T00:17:18.519Z,0
2017-12-23T00:18:28.480Z,0
2017-12-23T00:19:38.167Z,0
2017-12-23T00:20:48.126Z,0
2017-12-23T00:21:58.080Z,0
2017-12-23T00:23:07.766Z,0
2017-12-23T00:24:17.726Z,0
2017-12-23T00:25:27.684Z,0
2017-12-23T00:26:37.371Z,0
2017-12-23T00:27:47.081Z,0
2017-12-23T00:28:57.042Z,0
2017-12-23T00:30:06.744Z,0
2017-12-23T00:31:16.688Z,0
2017-12-23T00:32:26.632Z,0
2017-12-23T00:33:36.324Z,0
2017-12-23T00:34:46.271Z,0
2017-12-23T00:35:56.217Z,0
2017-12-23T00:37:05.689Z,0
2017-12-23T00:38:15.650Z,0
2017-12-23T00:39:25.626Z,0
2017-12-23T00:40:35.323Z,0
2017-12-23T00:41:45.278Z,0
2017-12-23T00:42:54.977Z,0
2017-12-23T00:44:04.918Z,0
2017-12-23T00:45:14.348Z,0
2017-12-23T00:46:24.358Z,0
2017-12-23T00:47:34.313Z,0
2017-12-23T00:48:44.250Z,0
2017-12-23T00:49:54.193Z,0
2017-12-23T00:51:03.883Z,0
2017-12-23T00:52:13.835Z,0
2017-12-23T00:53:23.534Z,0
2017-12-23T00:54:33.220Z,0
2017-12-23T00:55:42.913Z,0
2017-12-23T00:56:52.854Z,0
2017-12-23T00:58:02.803Z,0
2017-12-23T00:59:12.818Z,0
2017-12-23T01:00:22.262Z,0
2017-12-23T01:01:32.202Z,0
2017-12-23T01:02:42.157Z,0
2017-12-23T01:03:52.116Z,0
2017-12-23T01:05:02.077Z,0
2017-12-23T01:06:12.016Z,0
2017-12-23T01:07:21.970Z,0
2017-12-23T01:08:31.905Z,0
2017-12-23T01:09:41.596Z,0
2017-12-23T01:10:51.545Z,0
2017-12-23T01:12:01.230Z,0
2017-12-23T01:13:11.201Z,0
2017-12-23T01:14:20.899Z,0
2017-12-23T01:15:30.844Z,0
2017-12-23T01:16:40.547Z,0
2017-12-23T01:17:49.977Z,0
2017-12-23T01:18:59.932Z,0
2017-12-23T01:20:09.617Z,0
2017-12-23T01:21:19.569Z,0
2017-12-23T01:22:29.267Z,0
2017-12-23T01:23:38.948Z,0
2017-12-23T01:24:48.627Z,0
2017-12-23T01:25:58.574Z,0
2017-12-23T01:27:08.523Z,0
2017-12-23T01:28:18.484Z,0
2017-12-23T01:29:28.434Z,0
2017-12-23T01:30:38.393Z,0
2017-12-23T01:31:48.390Z,0
2017-12-23T01:32:58.344Z,0
2017-12-23T01:34:08.026Z,0
2017-12-23T01:35:17.968Z,0
2017-12-23T01:36:27.934Z,0
2017-12-23T01:37:37.898Z,0
2017-12-23T01:38:47.846Z,0
2017-12-23T01:39:57.797Z,0
2017-12-23T01:41:07.809Z,0
2017-12-23T01:42:17.761Z,0
2017-12-23T01:43:27.698Z,0
2017-12-23T01:44:37.410Z,0
2017-12-23T01:45:47.158Z,0
2017-12-23T01:46:57.120Z,0
2017-12-23T01:48:06.822Z,0
2017-12-23T01:49:16.765Z,0
2017-12-23T01:50:26.465Z,0
2017-12-23T01:51:36.400Z,0
2017-12-23T01:52:46.087Z,0
2017-12-23T01:53:56.071Z,0
2017-12-23T01:55:05.760Z,0
2017-12-23T01:56:15.700Z,0
2017-12-23T01:57:25.642Z,0
2017-12-23T01:58:35.071Z,0
2017-12-23T01:59:45.025Z,0
2017-12-23T02:00:54.459Z,0
2017-12-23T02:02:04.142Z,0
2017-12-23T02:03:14.093Z,0
2017-12-23T02:04:24.043Z,0
2017-12-23T02:05:33.992Z,0
2017-12-23T02:06:43.933Z,0
2017-12-23T02:07:53.618Z,0
2017-12-23T02:09:03.571Z,0
2017-12-23T02:10:13.516Z,0
2017-12-23T02:11:23.216Z,0
2017-12-23T02:12:33.162Z,0
2017-12-23T02:13:43.108Z,0
2017-12-23T02:14:53.076Z,0
2017-12-23T02:16:02.769Z,0
2017-12-23T02:17:12.720Z,0
2017-12-23T02:18:22.667Z,0
2017-12-23T02:19:32.616Z,0
2017-12-23T02:20:42.097Z,0
2017-12-23T02:21:51.795Z,0
2017-12-23T02:23:01.496Z,0
2017-12-23T02:24:11.454Z,0
2017-12-23T02:25:20.892Z,0
2017-12-23T02:26:30.848Z,0
2017-12-23T02:27:40.860Z,0
2017-12-23T02:28:50.806Z,0
2017-12-23T02:30:00.752Z,0
2017-12-23T02:31:10.703Z,0
2017-12-23T02:32:20.653Z,0
2017-12-23T02:33:30.090Z,0
2017-12-23T02:34:40.092Z,0
2017-12-23T02:35:49.798Z,0
2017-12-23T02:36:59.498Z,0
2017-12-23T02:38:09.201Z,0
2017-12-23T02:39:19.152Z,0
2017-12-23T02:40:28.856Z,0
2017-12-23T02:41:38.816Z,0
2017-12-23T02:42:48.776Z,0
2017-12-23T02:43:58.738Z,0
2017-12-23T02:45:08.431Z,0
2017-12-23T02:46:17.869Z,0
2017-12-23T02:47:27.834Z,0
2017-12-23T02:48:37.537Z,0
2017-12-23T02:49:47.503Z,0
2017-12-23T02:50:57.219Z,0
2017-12-23T02:52:07.180Z,0
2017-12-23T02:53:17.127Z,0
2017-12-23T02:54:26.825Z,0
2017-12-23T02:55:36.785Z,0
2017-12-23T02:56:46.748Z,0
2017-12-23T02:57:56.707Z,0
2017-12-23T02:59:06.668Z,0
2017-12-23T03:00:16.616Z,0
2017-12-23T03:01:26.562Z,0
2017-12-23T03:02:36.250Z,0
2017-12-23T03:03:46.193Z,0
2017-12-23T03:04:56.031Z,0
2017-12-23T03:06:05.977Z,0
2017-12-23T03:07:15.670Z,0
2017-12-23T03:08:25.623Z,0
2017-12-23T03:09:35.571Z,0
2017-12-23T03:10:45.521Z,0
2017-12-23T03:11:55.474Z,0
2017-12-23T03:13:05.414Z,0
2017-12-23T03:14:15.352Z,0
2017-12-23T03:15:25.306Z,0
2017-12-23T03:16:35.271Z,0
2017-12-23T03:17:45.213Z,0
2017-12-23T03:18:54.905Z,0
2017-12-23T03:20:04.864Z,0
2017-12-23T03:21:14.816Z,0
2017-12-23T03:22:24.765Z,0
2017-12-23T03:23:34.710Z,0
2017-12-23T03:24:44.655Z,0
2017-12-23T03:25:54.612Z,0
2017-12-23T03:27:03.806Z,0
2017-12-23T03:28:13.751Z,0
2017-12-23T03:29:23.698Z,0
2017-12-23T03:30:33.390Z,0
2017-12-23T03:31:43.345Z,0
2017-12-23T03:32:52.775Z,0
2017-12-23T03:34:02.731Z,0
2017-12-23T03:35:12.409Z,0
2017-12-23T03:36:22.193Z,0
2017-12-23T03:37:32.144Z,0
2017-12-23T03:38:41.836Z,0
2017-12-23T03:39:51.776Z,0
2017-12-23T03:41:01.743Z,0
2017-12-23T03:42:11.687Z,0
2017-12-23T03:43:21.632Z,0
2017-12-23T03:44:31.318Z,0
2017-12-23T03:45:40.998Z,0
2017-12-23T03:46:50.944Z,0
2017-12-23T03:48:00.384Z,0
2017-12-23T03:49:10.334Z,0
2017-12-23T03:50:20.280Z,0
2017-12-23T03:51:30.237Z,0
2017-12-23T03:52:40.195Z,0
2017-12-23T03:53:49.891Z,0
2017-12-23T03:54:59.333Z,0
2017-12-23T03:56:09.032Z,0
2017-12-23T03:57:18.975Z,0
2017-12-23T03:58:28.923Z,0
2017-12-23T03:59:38.865Z,0
2017-12-23T04:00:48.802Z,0
2017-12-23T04:01:58.742Z,0
2017-12-23T04:03:08.689Z,0
2017-12-23T04:04:18.639Z,0
2017-12-23T04:05:28.329Z,0
2017-12-23T04:06:38.286Z,0
2017-12-23T04:07:47.980Z,0
2017-12-23T04:08:57.988Z,0
2017-12-23T04:10:08.010Z,0
2017-12-23T04:11:17.699Z,0
2017-12-23T04:12:27.641Z,0
2017-12-23T04:13:37.665Z,0
2017-12-23T04:14:47.612Z,0
2017-12-23T04:15:57.546Z,0
2017-12-23T04:17:07.243Z,0
2017-12-23T04:18:16.936Z,0
2017-12-23T04:19:26.879Z,0
2017-12-23T04:20:36.561Z,0
2017-12-23T04:21:46.255Z,0
2017-12-23T04:22:55.946Z,0
2017-12-23T04:24:05.632Z,0
2017-12-23T04:25:15.591Z,0
2017-12-23T04:26:25.542Z,0
2017-12-23T04:27:35.239Z,0
2017-12-23T04:28:45.181Z,0
2017-12-23T04:29:55.124Z,0
2017-12-23T04:31:05.069Z,0
2017-12-23T04:32:15.013Z,0
2017-12-23T04:33:24.957Z,0
2017-12-23T04:34:34.914Z,0
2017-12-23T04:35:44.869Z,0
2017-12-23T04:36:54.830Z,0
2017-12-23T04:38:04.780Z,0
2017-12-23T04:39:14.486Z,0
2017-12-23T04:40:24.186Z,0
2017-12-23T04:41:33.879Z,0
2017-12-23T04:42:43.827Z,0
2017-12-23T04:43:53.773Z,0
2017-12-23T04:45:03.724Z,0
2017-12-23T04:46:13.417Z,0
2017-12-23T04:47:23.357Z,0
2017-12-23T04:48:33.302Z,0
2017-12-23T04:49:43.503Z,0
2017-12-23T04:50:53.447Z,0
2017-12-23T04:52:03.138Z,0
2017-12-23T04:53:13.080Z,0
2017-12-23T04:54:23.032Z,0
2017-12-23T04:55:32.729Z,0
2017-12-23T04:56:42.421Z,0
2017-12-23T04:57:51.860Z,0
2017-12-23T04:59:01.816Z,0
2017-12-23T05:00:11.501Z,0
2017-12-23T05:01:21.447Z,0
2017-12-23T05:02:31.130Z,0
2017-12-23T05:03:41.079Z,0
2017-12-23T05:04:50.765Z,0
2017-12-23T05:06:00.709Z,0
2017-12-23T05:07:10.659Z,0
2017-12-23T05:08:20.604Z,0
2017-12-23T05:09:30.304Z,0
2017-12-23T05:10:40.005Z,0
2017-12-23T05:11:49.951Z,0
2017-12-23T05:12:59.892Z,0
2017-12-23T05:14:09.568Z,0
2017-12-23T05:15:19.264Z,0
2017-12-23T05:16:29.205Z,0
2017-12-23T05:17:38.629Z,0
2017-12-23T05:18:48.573Z,0
2017-12-23T05:19:58.516Z,0
2017-12-23T05:21:08.464Z,0
2017-12-23T05:22:18.473Z,0
2017-12-23T05:23:28.413Z,0
2017-12-23T05:24:38.106Z,0
2017-12-23T05:25:48.038Z,0
2017-12-23T05:26:57.736Z,0
2017-12-23T05:28:07.426Z,0
2017-12-23T05:29:17.393Z,0
2017-12-23T05:30:27.336Z,0
2017-12-23T05:31:36.780Z,0
2017-12-23T05:32:46.465Z,0
2017-12-23T05:33:56.151Z,0
2017-12-23T05:35:06.163Z,0
2017-12-23T05:36:16.129Z,0
2017-12-23T05:37:25.837Z,0
2017-12-23T05:38:35.798Z,0
2017-12-23T05:39:45.764Z,0
2017-12-23T05:40:55.722Z,0
2017-12-23T05:42:05.660Z,0
2017-12-23T05:43:15.098Z,0
2017-12-23T05:44:25.034Z,0
2017-12-23T05:45:34.987Z,0
2017-12-23T05:46:44.952Z,0
2017-12-23T05:47:54.917Z,0
2017-12-23T05:49:04.861Z,0
2017-12-23T05:50:14.803Z,0
2017-12-23T05:51:24.239Z,0
2017-12-23T05:52:33.924Z,0
2017-12-23T05:53:43.686Z,0
2017-12-23T05:54:53.621Z,0
2017-12-23T05:56:03.562Z,0
2017-12-23T05:57:13.516Z,0
2017-12-23T05:58:22.947Z,0
2017-12-23T05:59:32.899Z,0
2017-12-23T06:00:42.851Z,0
2017-12-23T06:01:52.800Z,0
2017-12-23T06:03:02.757Z,0
2017-12-23T06:04:12.704Z,0
2017-12-23T06:05:22.662Z,0
2017-12-23T06:06:32.612Z,0
2017-12-23T06:07:42.567Z,0
2017-12-23T06:08:52.514Z,0
2017-12-23T06:10:02.464Z,0
2017-12-23T06:11:12.406Z,0
2017-12-23T06:12:22.357Z,0
2017-12-23T06:13:32.298Z,0
2017-12-23T06:14:42.247Z,0
2017-12-23T06:15:51.938Z,0
2017-12-23T06:17:01.631Z,0
2017-12-23T06:18:11.591Z,0
2017-12-23T06:19:21.535Z,0
2017-12-23T06:20:31.484Z,0
2017-12-23T06:21:41.430Z,0
2017-12-23T06:22:51.127Z,0
2017-12-23T06:24:01.062Z,0
2017-12-23T06:25:11.005Z,0
2017-12-23T06:26:20.957Z,0
2017-12-23T06:27:30.656Z,0
2017-12-23T06:28:40.082Z,0
2017-12-23T06:29:50.016Z,0
2017-12-23T06:30:59.965Z,0
2017-12-23T06:32:09.914Z,0
2017-12-23T06:33:19.856Z,0
2017-12-23T06:34:29.796Z,0
2017-12-23T06:35:39.747Z,0
2017-12-23T06:36:49.697Z,0
2017-12-23T06:37:59.645Z,0
2017-12-23T06:39:09.337Z,0
2017-12-23T06:40:19.288Z,0
2017-12-23T06:41:28.985Z,0
2017-12-23T06:42:38.944Z,0
2017-12-23T06:43:48.892Z,4
2017-12-23T06:44:58.906Z,4
2017-12-23T06:46:08.872Z,4
2017-12-23T06:47:18.822Z,0
2017-12-23T06:48:28.760Z,4
2017-12-23T06:49:38.446Z,4
2017-12-23T06:50:47.883Z,8
2017-12-23T06:51:58.077Z,4
2017-12-23T06:53:07.774Z,8
2017-12-23T06:54:17.727Z,12
2017-12-23T06:55:27.673Z,8
2017-12-23T06:56:37.637Z,12
2017-12-23T06:57:47.589Z,12
2017-12-23T06:58:57.285Z,12
2017-12-23T07:00:06.720Z,16
2017-12-23T07:01:16.404Z,16
2017-12-23T07:02:26.087Z,20
2017-12-23T07:03:36.086Z,24
2017-12-23T07:04:46.046Z,28
2017-12-23T07:05:55.986Z,28
2017-12-23T07:07:05.689Z,36
2017-12-23T07:08:15.379Z,36
2017-12-23T07:09:25.325Z,40
2017-12-23T07:10:35.267Z,44
2017-12-23T07:11:45.218Z,48
2017-12-23T07:12:55.158Z,48
2017-12-23T07:14:04.853Z,60
2017-12-23T07:15:14.800Z,64
2017-12-23T07:16:24.750Z,72
2017-12-23T07:17:34.692Z,76
2017-12-23T07:18:44.652Z,84
2017-12-23T07:19:54.627Z,88
2017-12-23T07:21:04.578Z,100
2017-12-23T07:22:13.765Z,108
2017-12-23T07:23:23.715Z,120
2017-12-23T07:24:33.662Z,128
2017-12-23T07:25:43.608Z,140
2017-12-23T07:26:53.304Z,148
2017-12-23T07:28:03.241Z,160
2017-12-23T07:29:12.960Z,176
2017-12-23T07:30:22.661Z,184
2017-12-23T07:31:32.611Z,200
2017-12-23T07:32:42.554Z,224
2017-12-23T07:33:52.506Z,232
2017-12-23T07:35:01.945Z,260
2017-12-23T07:36:11.632Z,284
2017-12-23T07:37:21.590Z,284
2017-12-23T07:38:31.534Z,332
2017-12-23T07:39:41.552Z,352
2017-12-23T07:40:51.543Z,400
2017-12-23T07:42:01.229Z,420
2017-12-23T07:43:10.920Z,456
2017-12-23T07:44:20.605Z,440
2017-12-23T07:45:30.304Z,504
2017-12-23T07:46:40.263Z,564
2017-12-23T07:47:50.209Z,524
2017-12-23T07:48:59.901Z,580
2017-12-23T07:50:09.604Z,612
2017-12-23T07:51:19.551Z,588
2017-12-23T07:52:29.550Z,608
2017-12-23T07:53:39.513Z,684
2017-12-23T07:54:49.493Z,680
2017-12-23T07:55:59.190Z,628
2017-12-23T07:57:09.155Z,676
2017-12-23T07:58:19.109Z,628
2017-12-23T07:59:29.070Z,660
2017-12-23T08:00:38.756Z,648
2017-12-23T08:01:48.709Z,640
2017-12-23T08:02:58.660Z,664
2017-12-23T08:04:08.620Z,660
2017-12-23T08:05:18.574Z,688
2017-12-23T08:06:28.544Z,664
2017-12-23T08:07:38.498Z,708
2017-12-23T08:08:48.601Z,740
2017-12-23T08:09:58.299Z,712
2017-12-23T08:11:08.002Z,764
2017-12-23T08:12:17.999Z,796
2017-12-23T08:13:27.699Z,800
2017-12-23T08:14:37.454Z,784
2017-12-23T08:15:47.408Z,788
2017-12-23T08:16:57.365Z,796
2017-12-23T08:18:07.054Z,824
2017-12-23T08:19:17.011Z,888
2017-12-23T08:20:26.958Z,848
2017-12-23T08:21:36.668Z,916
2017-12-23T08:22:46.384Z,912
2017-12-23T08:23:56.331Z,908
2017-12-23T08:25:06.279Z,872
2017-12-23T08:26:16.248Z,852
2017-12-23T08:27:25.944Z,876
2017-12-23T08:28:35.906Z,876
2017-12-23T08:29:45.615Z,892
2017-12-23T08:30:55.565Z,852
2017-12-23T08:32:05.513Z,876
2017-12-23T08:33:15.464Z,908
2017-12-23T08:34:25.422Z,800
2017-12-23T08:35:35.389Z,856
2017-12-23T08:36:45.100Z,872
2017-12-23T08:37:54.799Z,912
2017-12-23T08:39:04.487Z,1008
2017-12-23T08:40:14.433Z,1192
2017-12-23T08:41:24.386Z,1200
2017-12-23T08:42:34.340Z,1296
2017-12-23T08:43:44.020Z,1412
2017-12-23T08:44:53.742Z,1516
2017-12-23T08:46:03.700Z,1428
2017-12-23T08:47:13.408Z,1336
2017-12-23T08:48:22.842Z,1360
2017-12-23T08:49:32.805Z,1340
2017-12-23T08:50:42.515Z,1316
2017-12-23T08:51:52.230Z,1232
2017-12-23T08:53:02.192Z,1244
2017-12-23T08:54:12.143Z,1172
2017-12-23T08:55:22.106Z,1136
2017-12-23T08:56:32.066Z,1260
2017-12-23T08:57:42.037Z,1288
2017-12-23T08:58:51.998Z,1256
2017-12-23T09:00:01.959Z,1144
2017-12-23T09:01:11.905Z,1208
2017-12-23T09:02:21.859Z,1232
2017-12-23T09:03:31.811Z,1200
2017-12-23T09:04:41.515Z,1244
2017-12-23T09:05:51.464Z,1100
2017-12-23T09:07:01.409Z,988
2017-12-23T09:08:11.364Z,896
2017-12-23T09:09:21.321Z,872
2017-12-23T09:10:31.270Z,828
2017-12-23T09:11:41.219Z,888
2017-12-23T09:12:51.193Z,920
2017-12-23T09:14:01.141Z,1108
2017-12-23T09:15:11.106Z,1268
2017-12-23T09:16:21.077Z,1236
2017-12-23T09:17:31.279Z,1356
2017-12-23T09:18:41.236Z,1380
2017-12-23T09:19:50.935Z,1408
2017-12-23T09:21:00.651Z,1404
2017-12-23T09:22:10.346Z,1564
2017-12-23T09:23:20.044Z,1660
2017-12-23T09:24:29.994Z,1688
2017-12-23T09:25:39.967Z,1816
2017-12-23T09:26:49.665Z,1716
2017-12-23T09:27:59.873Z,1572
2017-12-23T09:29:09.580Z,1564
2017-12-23T09:30:19.273Z,1564
2017-12-23T09:31:28.958Z,1504
2017-12-23T09:32:38.922Z,1448
2017-12-23T09:33:48.617Z,1488
2017-12-23T09:34:58.342Z,1548
2017-12-23T09:36:08.055Z,1572
2017-12-23T09:37:17.759Z,1548
2017-12-23T09:38:27.716Z,1580
2017-12-23T09:39:37.694Z,1640
2017-12-23T09:40:47.151Z,1612
2017-12-23T09:41:56.871Z,1584
2017-12-23T09:43:06.576Z,1648
2017-12-23T09:44:16.531Z,1532
2017-12-23T09:45:26.493Z,1588
2017-12-23T09:46:36.447Z,1608
2017-12-23T09:47:46.402Z,1644
2017-12-23T09:48:56.358Z,1720
2017-12-23T09:50:06.072Z,1652
2017-12-23T09:51:15.753Z,1572
2017-12-23T09:52:25.731Z,1708
2017-12-23T09:53:35.442Z,1676
2017-12-23T09:54:45.402Z,1524
2017-12-23T09:55:54.837Z,1440
2017-12-23T09:57:04.779Z,1408
2017-12-23T09:58:14.531Z,2008
2017-12-23T09:59:24.481Z,2672
2017-12-23T10:00:33.929Z,2584
2017-12-23T10:01:43.885Z,2728
2017-12-23T10:02:53.320Z,2632
2017-12-23T10:04:02.768Z,2420
2017-12-23T10:05:12.731Z,2460
2017-12-23T10:06:22.432Z,2724
2017-12-23T10:07:32.385Z,2500
2017-12-23T10:08:42.349Z,2580
2017-12-23T10:09:52.306Z,2340
2017-12-23T10:11:02.250Z,2328
2017-12-23T10:12:12.193Z,2168
2017-12-23T10:13:21.629Z,1924
2017-12-23T10:14:31.319Z,1772
2017-12-23T10:15:41.018Z,1716
2017-12-23T10:16:50.970Z,1856
2017-12-23T10:18:00.670Z,1652
2017-12-23T10:19:10.622Z,1576
2017-12-23T10:20:20.579Z,1468
2017-12-23T10:21:30.545Z,1456
2017-12-23T10:22:40.499Z,1364
2017-12-23T10:23:50.454Z,1220
2017-12-23T10:25:00.411Z,1200
2017-12-23T10:26:10.380Z,1160
2017-12-23T10:27:20.090Z,1180
2017-12-23T10:28:30.052Z,1168
2017-12-23T10:29:40.006Z,1296
2017-12-23T10:30:49.965Z,1200
2017-12-23T10:31:59.916Z,1448
2017-12-23T10:33:09.620Z,1780
2017-12-23T10:34:19.573Z,2172
2017-12-23T10:35:29.536Z,2612
2017-12-23T10:36:39.504Z,2612
2017-12-23T10:37:49.203Z,2692
2017-12-23T10:38:59.165Z,2596
2017-12-23T10:40:08.917Z,2900
2017-12-23T10:41:18.888Z,3080
2017-12-23T10:42:28.326Z,3524
2017-12-23T10:43:38.276Z,3404
2017-12-23T10:44:48.236Z,3552
2017-12-23T10:45:57.933Z,3096
2017-12-23T10:47:07.885Z,2460
2017-12-23T10:48:17.597Z,2644
2017-12-23T10:49:27.540Z,2376
2017-12-23T10:50:37.524Z,2636
2017-12-23T10:51:47.535Z,2720
2017-12-23T10:52:57.231Z,2916
2017-12-23T10:54:07.186Z,2508
2017-12-23T10:55:16.892Z,2520
2017-12-23T10:56:26.845Z,2832
2017-12-23T10:57:36.556Z,2964
2017-12-23T10:58:46.265Z,2792
2017-12-23T10:59:55.964Z,3204
2017-12-23T11:01:05.928Z,2912
2017-12-23T11:02:15.619Z,2744
2017-12-23T11:03:25.596Z,2496
2017-12-23T11:04:35.603Z,2328
2017-12-23T11:05:45.285Z,2664
2017-12-23T11:06:55.240Z,3304
2017-12-23T11:08:05.204Z,4156
2017-12-23T11:09:15.157Z,3888
2017-12-23T11:10:25.146Z,4016
2017-12-23T11:11:35.132Z,4436
2017-12-23T11:12:45.089Z,4248
2017-12-23T11:13:55.045Z,3664
2017-12-23T11:15:05.017Z,3356
2017-12-23T11:16:14.992Z,3528
2017-12-23T11:17:24.680Z,3508
2017-12-23T11:18:34.472Z,3904
2017-12-23T11:19:44.438Z,4192
2017-12-23T11:20:53.874Z,4020
2017-12-23T11:22:03.331Z,4476
2017-12-23T11:23:13.018Z,5076
2017-12-23T11:24:22.983Z,4532
2017-12-23T11:25:32.945Z,4812
2017-12-23T11:26:42.663Z,4576
2017-12-23T11:27:52.349Z,5228
2017-12-23T11:29:02.309Z,5476
2017-12-23T11:30:12.262Z,5684
2017-12-23T11:31:22.243Z,6028
2017-12-23T11:32:32.194Z,5120
2017-12-23T11:33:42.148Z,5244
2017-12-23T11:34:52.122Z,6180
2017-12-23T11:36:01.890Z,6560
2017-12-23T11:37:11.854Z,6632
2017-12-23T11:38:21.818Z,6872
2017-12-23T11:39:31.772Z,6924
2017-12-23T11:40:41.740Z,6416
2017-12-23T11:41:51.690Z,5928
2017-12-23T11:43:01.646Z,6168
2017-12-23T11:44:10.842Z,5080
2017-12-23T11:45:20.819Z,4304
2017-12-23T11:46:30.782Z,4396
2017-12-23T11:47:40.745Z,5304
2017-12-23T11:48:50.732Z,4656
2017-12-23T11:50:00.690Z,4080
2017-12-23T11:51:10.430Z,3392
2017-12-23T11:52:20.390Z,3956
2017-12-23T11:53:30.362Z,3768
2017-12-23T11:54:40.338Z,3864
2017-12-23T11:55:50.288Z,3372
2017-12-23T11:57:00.257Z,2892
2017-12-23T11:58:10.209Z,2244
2017-12-23T11:59:20.197Z,2336
2017-12-23T12:00:30.152Z,2020
2017-12-23T12:01:39.866Z,2648
2017-12-23T12:02:49.579Z,3084
2017-12-23T12:03:59.531Z,3220
2017-12-23T12:05:09.228Z,3052
2017-12-23T12:06:19.188Z,3740
2017-12-23T12:07:29.154Z,4748
2017-12-23T12:08:39.114Z,4368
2017-12-23T12:09:49.069Z,4056
2017-12-23T12:10:59.038Z,4380
2017-12-23T12:12:09.023Z,3796
2017-12-23T12:13:18.732Z,4004
2017-12-23T12:14:28.430Z,4292
2017-12-23T12:15:38.434Z,5096
2017-12-23T12:16:48.128Z,6056
2017-12-23T12:17:58.086Z,5280
2017-12-23T12:19:07.803Z,5264
2017-12-23T12:20:17.762Z,5996
2017-12-23T12:21:27.724Z,5300
2017-12-23T12:22:37.413Z,5760
2017-12-23T12:23:47.114Z,4352
2017-12-23T12:24:56.848Z,4844
2017-12-23T12:26:06.817Z,4092
2017-12-23T12:27:16.777Z,3008
2017-12-23T12:28:26.542Z,2612
2017-12-23T12:29:36.504Z,2460
2017-12-23T12:30:46.244Z,2232
2017-12-23T12:31:56.200Z,1796
2017-12-23T12:33:06.171Z,1908
2017-12-23T12:34:16.134Z,1924
2017-12-23T12:35:26.122Z,1784
2017-12-23T12:36:36.070Z,1912
2017-12-23T12:37:46.041Z,2136
2017-12-23T12:38:55.484Z,1592
2017-12-23T12:40:05.172Z,1860
2017-12-23T12:41:15.131Z,1660
2017-12-23T12:42:25.115Z,1564
2017-12-23T12:43:35.081Z,1544
2017-12-23T12:44:45.061Z,1732
2017-12-23T12:45:55.022Z,1564
2017-12-23T12:47:04.977Z,1984
2017-12-23T12:48:14.939Z,2056
2017-12-23T12:49:24.633Z,2272
2017-12-23T12:50:34.592Z,2008
2017-12-23T12:51:44.563Z,2240
2017-12-23T12:52:54.534Z,2136
2017-12-23T12:54:04.503Z,2448
2017-12-23T12:55:14.274Z,2576
2017-12-23T12:56:24.282Z,3076
2017-12-23T12:57:34.256Z,3144
2017-12-23T12:58:43.968Z,2776
2017-12-23T12:59:53.676Z,3020
2017-12-23T13:01:03.413Z,2816
2017-12-23T13:02:13.390Z,2236
2017-12-23T13:03:23.352Z,2124
2017-12-23T13:04:33.048Z,1936
2017-12-23T13:05:42.736Z,1648
2017-12-23T13:06:52.695Z,1724
2017-12-23T13:08:02.660Z,1476
2017-12-23T13:09:12.351Z,1536
2017-12-23T13:10:22.328Z,1776
2017-12-23T13:11:32.293Z,1668
2017-12-23T13:12:42.003Z,1540
2017-12-23T13:13:51.970Z,1420
2017-12-23T13:15:01.977Z,1308
2017-12-23T13:16:11.463Z,1188
2017-12-23T13:17:21.416Z,1320
2017-12-23T13:18:31.391Z,1284
2017-12-23T13:19:41.360Z,1636
2017-12-23T13:20:51.053Z,1548
2017-12-23T13:22:00.752Z,1400
2017-12-23T13:23:10.179Z,1404
2017-12-23T13:24:20.158Z,1408
2017-12-23T13:25:30.128Z,1432
2017-12-23T13:26:40.098Z,1388
2017-12-23T13:27:50.054Z,1412
2017-12-23T13:29:00.264Z,1368
2017-12-23T13:30:09.957Z,1368
2017-12-23T13:31:19.663Z,1376
2017-12-23T13:32:29.114Z,1508
2017-12-23T13:33:39.083Z,1524
2017-12-23T13:34:48.815Z,1528
2017-12-23T13:35:58.783Z,1472
2017-12-23T13:37:08.751Z,1348
2017-12-23T13:38:18.710Z,1264
2017-12-23T13:39:28.666Z,1380
2017-12-23T13:40:38.367Z,1428
2017-12-23T13:41:48.322Z,1388
2017-12-23T13:42:58.015Z,1452
2017-12-23T13:44:07.995Z,1472
2017-12-23T13:45:17.428Z,1568
2017-12-23T13:46:27.405Z,1752
2017-12-23T13:47:37.105Z,1928
2017-12-23T13:48:47.060Z,1916
2017-12-23T13:49:56.814Z,1876
2017-12-23T13:51:06.527Z,1404
2017-12-23T13:52:16.471Z,1520
2017-12-23T13:53:26.180Z,1684
2017-12-23T13:54:36.214Z,1672
2017-12-23T13:55:45.917Z,1540
2017-12-23T13:56:55.870Z,1344
2017-12-23T13:58:05.338Z,1368
2017-12-23T13:59:15.301Z,1272
2017-12-23T14:00:24.990Z,1272
2017-12-23T14:01:34.946Z,1236
2017-12-23T14:02:44.657Z,1328
2017-12-23T14:03:54.371Z,1308
2017-12-23T14:05:04.332Z,1436
2017-12-23T14:06:14.299Z,1184
2017-12-23T14:07:24.254Z,1096
2017-12-23T14:08:34.027Z,1088
2017-12-23T14:09:43.998Z,952
2017-12-23T14:10:53.682Z,1000
2017-12-23T14:12:03.392Z,968
2017-12-23T14:13:13.359Z,912
2017-12-23T14:14:23.363Z,888
2017-12-23T14:15:32.561Z,760
2017-12-23T14:16:42.011Z,692
2017-12-23T14:17:51.756Z,636
2017-12-23T14:19:01.954Z,824
2017-12-23T14:20:11.930Z,612
2017-12-23T14:21:21.640Z,564
2017-12-23T14:22:31.600Z,588
2017-12-23T14:23:41.034Z,616
2017-12-23T14:24:50.772Z,548
2017-12-23T14:26:00.752Z,528
2017-12-23T14:27:10.772Z,520
2017-12-23T14:28:20.481Z,436
2017-12-23T14:29:30.468Z,436
2017-12-23T14:30:40.426Z,428
2017-12-23T14:31:50.379Z,360
2017-12-23T14:33:00.329Z,332
2017-12-23T14:34:10.026Z,312
2017-12-23T14:35:19.475Z,280
2017-12-23T14:36:29.437Z,272
2017-12-23T14:37:39.138Z,272
2017-12-23T14:38:49.115Z,272
2017-12-23T14:39:59.099Z,236
2017-12-23T14:41:09.063Z,208
2017-12-23T14:42:18.764Z,204
2017-12-23T14:43:28.713Z,188
2017-12-23T14:44:38.418Z,180
2017-12-23T14:45:48.383Z,152
2017-12-23T14:46:58.356Z,136
2017-12-23T14:48:08.318Z,120
2017-12-23T14:49:18.282Z,104
2017-12-23T14:50:28.251Z,104
2017-12-23T14:51:37.960Z,96
2017-12-23T14:52:47.907Z,92
2017-12-23T14:53:57.611Z,84
2017-12-23T14:55:07.575Z,68
2017-12-23T14:56:17.302Z,64
2017-12-23T14:57:27.261Z,64
2017-12-23T14:58:37.233Z,56
2017-12-23T14:59:47.206Z,52
2017-12-23T15:00:57.164Z,48
2017-12-23T15:02:07.171Z,44
2017-12-23T15:03:16.939Z,40
2017-12-23T15:04:26.653Z,40
2017-12-23T15:05:36.864Z,36
2017-12-23T15:06:46.840Z,32
2017-12-23T15:07:56.538Z,24
2017-12-23T15:09:06.516Z,24
2017-12-23T15:10:16.481Z,20
2017-12-23T15:11:26.441Z,20
2017-12-23T15:12:36.393Z,12
2017-12-23T15:13:46.357Z,12
2017-12-23T15:14:56.319Z,8
2017-12-23T15:16:06.278Z,8
2017-12-23T15:17:15.467Z,8
2017-12-23T15:18:24.909Z,4
2017-12-23T15:19:34.923Z,4
2017-12-23T15:20:44.893Z,4
2017-12-23T15:21:54.598Z,4
2017-12-23T15:23:04.577Z,4
2017-12-23T15:24:14.548Z,4
2017-12-23T15:25:24.269Z,0
2017-12-23T15:26:33.983Z,0
2017-12-23T15:27:43.949Z,4
2017-12-23T15:28:53.916Z,4
2017-12-23T15:30:03.604Z,0
2017-12-23T15:31:13.563Z,0
2017-12-23T15:32:23.512Z,0
2017-12-23T15:33:33.223Z,0
2017-12-23T15:34:43.245Z,0
2017-12-23T15:35:53.211Z,0
2017-12-23T15:37:03.167Z,0
2017-12-23T15:38:13.126Z,0
2017-12-23T15:39:23.085Z,0
2017-12-23T15:40:33.060Z,0
2017-12-23T15:41:42.836Z,0
2017-12-23T15:42:52.808Z,0
2017-12-23T15:44:02.508Z,0
2017-12-23T15:45:12.203Z,0
2017-12-23T15:46:22.221Z,0
2017-12-23T15:47:32.183Z,0
2017-12-23T15:48:41.633Z,0
2017-12-23T15:49:51.324Z,0
2017-12-23T15:51:01.305Z,0
2017-12-23T15:52:11.013Z,0
2017-12-23T15:53:20.979Z,0
2017-12-23T15:54:30.957Z,0
2017-12-23T15:55:40.652Z,0
2017-12-23T15:56:50.598Z,0
2017-12-23T15:58:00.566Z,0
2017-12-23T15:59:10.519Z,0
2017-12-23T16:00:20.532Z,0
2017-12-23T16:01:30.521Z,0
2017-12-23T16:02:40.540Z,0
2017-12-23T16:03:50.271Z,0
2017-12-23T16:05:00.231Z,0
2017-12-23T16:06:10.179Z,0
2017-12-23T16:07:20.129Z,0
2017-12-23T16:08:29.318Z,0
2017-12-23T16:09:39.011Z,0
2017-12-23T16:10:48.715Z,0
2017-12-23T16:11:58.673Z,0
2017-12-23T16:13:08.113Z,0
2017-12-23T16:14:17.812Z,0
2017-12-23T16:15:27.773Z,0
2017-12-23T16:16:37.746Z,0
2017-12-23T16:17:47.829Z,0
2017-12-23T16:18:57.808Z,0
2017-12-23T16:20:07.858Z,0
2017-12-23T16:21:17.842Z,0
2017-12-23T16:22:27.798Z,0
2017-12-23T16:23:37.498Z,0
2017-12-23T16:24:47.226Z,0
2017-12-23T16:25:57.202Z,0